sensor_id;sensor_type;location;lat;lon;timestamp;temperature;humidity
2282;DHT22;27486;48.77806476;9.16920056;2022-10-15T00:02:35;16.70;99.90
2282;DHT22;27486;48.77806476;9.16920056;2022-10-15T00:05:19;16.70;99.90
2282;DHT22;27486;48.77806476;9.16920056;2022-10-15T00:08:04;16.70;99.90
2282;DHT22;27486;48.77806476;9.16920056;2022-10-15T00:10:49;16.70;99.90
2282;DHT22;27486;48.77806476;9.16920056;2022-10-15T00:13:33;16.60;99.90
2282;DHT22;27486;48.77806476;9.16920056;2022-10-15T00:16:20;16.60;99.90
2282;DHT22;27486;48.77806476;9.16920056;2022-10-15T00:19:04;16.60;99.90
2282;DHT22;27486;48.77806476;9.16920056;2022-10-15T00:21:48;16.70;99.90
2282;DHT22;27486;48.77806476;9.16920056;2022-10-15T00:24:32;16.70;99.90
2282;DHT22;27486;48.77806476;9.16920056;2022-10-15T00:27:16;16.70;99.90
2282;DHT22;27486;48.77806476;9.16920056;2022-10-15T00:30:00;16.70;99.90
2282;DHT22;27486;48.77806476;9.16920056;2022-10-15T00:32:46;16.70;99.90
2282;DHT22;27486;48.77806476;9.16920056;2022-10-15T00:35:30;16.70;99.90
2282;DHT22;27486;48.77806476;9.16920056;2022-10-15T00:38:14;16.70;99.90
2282;DHT22;27486;48.77806476;9.16920056;2022-10-15T00:40:58;16.80;99.90
2282;DHT22;27486;48.77806476;9.16920056;2022-10-15T00:43:45;16.80;99.90
2282;DHT22;27486;48.77806476;9.16920056;2022-10-15T00:46:36;16.80;99.90
2282;DHT22;27486;48.77806476;9.16920056;2022-10-15T00:49:27;16.90;99.90
2282;DHT22;27486;48.77806476;9.16920056;2022-10-15T00:52:17;16.90;99.90
2282;DHT22;27486;48.77806476;9.16920056;2022-10-15T00:55:16;16.90;99.90
2282;DHT22;27486;48.77806476;9.16920056;2022-10-15T00:58:08;16.90;99.90
2282;DHT22;27486;48.77806476;9.16920056;2022-10-15T01:00:53;16.90;99.90
2282;DHT22;27486;48.77806476;9.16920056;2022-10-15T01:03:38;16.90;99.90
2282;DHT22;27486;48.77806476;9.16920056;2022-10-15T01:06:23;16.90;99.90
2282;DHT22;27486;48.77806476;9.16920056;2022-10-15T01:09:08;16.90;99.90
2282;DHT22;27486;48.77806476;9.16920056;2022-10-15T01:11:54;16.90;99.90
2282;DHT22;27486;48.77806476;9.16920056;2022-10-15T01:14:47;16.90;99.90
2282;DHT22;27486;48.77806476;9.16920056;2022-10-15T01:17:45;16.90;99.90
2282;DHT22;27486;48.77806476;9.16920056;2022-10-15T01:21:04;16.90;99.90
2282;DHT22;27486;48.77806476;9.16920056;2022-10-15T01:27:16;16.90;99.90
2282;DHT22;27486;48.77806476;9.16920056;2022-10-15T01:36:39;17.00;99.90
2282;DHT22;27486;48.77806476;9.16920056;2022-10-15T01:39:34;17.10;99.90
2282;DHT22;27486;48.77806476;9.16920056;2022-10-15T01:42:28;17.00;99.90
2282;DHT22;27486;48.77806476;9.16920056;2022-10-15T01:45:18;16.90;99.90
2282;DHT22;27486;48.77806476;9.16920056;2022-10-15T01:48:09;17.00;99.90
2282;DHT22;27486;48.77806476;9.16920056;2022-10-15T01:50:57;17.00;99.90
2282;DHT22;27486;48.77806476;9.16920056;2022-10-15T01:53:43;17.00;99.90
2282;DHT22;27486;48.77806476;9.16920056;2022-10-15T01:56:29;17.00;99.90
2282;DHT22;27486;48.77806476;9.16920056;2022-10-15T01:59:15;17.00;99.90
2282;DHT22;27486;48.77806476;9.16920056;2022-10-15T02:02:01;17.00;99.90
2282;DHT22;27486;48.77806476;9.16920056;2022-10-15T02:04:45;17.00;99.90
2282;DHT22;27486;48.77806476;9.16920056;2022-10-15T02:07:43;17.00;99.90
2282;DHT22;27486;48.77806476;9.16920056;2022-10-15T02:16:57;17.00;99.90
2282;DHT22;27486;48.77806476;9.16920056;2022-10-15T02:19:53;17.00;99.90
2282;DHT22;27486;48.77806476;9.16920056;2022-10-15T02:23:00;17.00;99.90
2282;DHT22;27486;48.77806476;9.16920056;2022-10-15T02:25:49;17.00;99.90
2282;DHT22;27486;48.77806476;9.16920056;2022-10-15T02:28:37;17.00;99.90
2282;DHT22;27486;48.77806476;9.16920056;2022-10-15T02:31:23;17.00;99.90
2282;DHT22;27486;48.77806476;9.16920056;2022-10-15T02:34:12;17.00;99.90
2282;DHT22;27486;48.77806476;9.16920056;2022-10-15T02:37:01;17.00;99.90
2282;DHT22;27486;48.77806476;9.16920056;2022-10-15T02:39:46;17.00;99.90
2282;DHT22;27486;48.77806476;9.16920056;2022-10-15T02:42:30;17.00;99.90
2282;DHT22;27486;48.77806476;9.16920056;2022-10-15T02:45:14;17.00;99.90
2282;DHT22;27486;48.77806476;9.16920056;2022-10-15T02:47:58;16.90;99.90
2282;DHT22;27486;48.77806476;9.16920056;2022-10-15T02:50:42;16.90;99.90
2282;DHT22;27486;48.77806476;9.16920056;2022-10-15T02:53:26;16.90;99.90
2282;DHT22;27486;48.77806476;9.16920056;2022-10-15T02:56:10;16.90;99.90
2282;DHT22;27486;48.77806476;9.16920056;2022-10-15T02:58:54;16.90;99.90
2282;DHT22;27486;48.77806476;9.16920056;2022-10-15T03:01:38;16.90;99.90
2282;DHT22;27486;48.77806476;9.16920056;2022-10-15T03:04:22;16.90;99.90
2282;DHT22;27486;48.77806476;9.16920056;2022-10-15T03:07:06;16.90;99.90
2282;DHT22;27486;48.77806476;9.16920056;2022-10-15T03:09:50;17.00;99.90
2282;DHT22;27486;48.77806476;9.16920056;2022-10-15T03:12:34;16.90;99.90
2282;DHT22;27486;48.77806476;9.16920056;2022-10-15T03:15:18;16.90;99.90
2282;DHT22;27486;48.77806476;9.16920056;2022-10-15T03:18:02;17.00;99.90
2282;DHT22;27486;48.77806476;9.16920056;2022-10-15T03:20:56;17.10;99.90
2282;DHT22;27486;48.77806476;9.16920056;2022-10-15T03:23:41;17.10;99.90
2282;DHT22;27486;48.77806476;9.16920056;2022-10-15T03:26:25;17.10;99.90
2282;DHT22;27486;48.77806476;9.16920056;2022-10-15T03:29:09;17.10;99.90
2282;DHT22;27486;48.77806476;9.16920056;2022-10-15T03:31:53;17.10;99.90
2282;DHT22;27486;48.77806476;9.16920056;2022-10-15T03:34:37;17.10;99.90
2282;DHT22;27486;48.77806476;9.16920056;2022-10-15T03:37:21;17.10;99.90
2282;DHT22;27486;48.77806476;9.16920056;2022-10-15T03:40:06;17.10;99.90
2282;DHT22;27486;48.77806476;9.16920056;2022-10-15T03:42:51;17.20;99.90
2282;DHT22;27486;48.77806476;9.16920056;2022-10-15T03:45:35;17.20;99.90
2282;DHT22;27486;48.77806476;9.16920056;2022-10-15T03:48:19;17.30;99.90
2282;DHT22;27486;48.77806476;9.16920056;2022-10-15T03:51:03;17.20;99.90
2282;DHT22;27486;48.77806476;9.16920056;2022-10-15T03:53:47;17.20;99.90
2282;DHT22;27486;48.77806476;9.16920056;2022-10-15T03:56:31;17.30;99.90
2282;DHT22;27486;48.77806476;9.16920056;2022-10-15T03:59:15;17.20;99.90
2282;DHT22;27486;48.77806476;9.16920056;2022-10-15T04:01:59;17.30;99.90
2282;DHT22;27486;48.77806476;9.16920056;2022-10-15T04:04:44;17.30;99.90
2282;DHT22;27486;48.77806476;9.16920056;2022-10-15T04:07:27;17.20;99.90
2282;DHT22;27486;48.77806476;9.16920056;2022-10-15T04:10:11;17.30;99.90
2282;DHT22;27486;48.77806476;9.16920056;2022-10-15T04:12:55;17.30;99.90
2282;DHT22;27486;48.77806476;9.16920056;2022-10-15T04:15:39;17.30;99.90
2282;DHT22;27486;48.77806476;9.16920056;2022-10-15T04:18:23;17.30;99.90
2282;DHT22;27486;48.77806476;9.16920056;2022-10-15T04:21:08;17.30;99.90
2282;DHT22;27486;48.77806476;9.16920056;2022-10-15T04:23:52;17.30;99.90
2282;DHT22;27486;48.77806476;9.16920056;2022-10-15T04:26:36;17.30;99.90
2282;DHT22;27486;48.77806476;9.16920056;2022-10-15T04:29:20;17.30;99.90
2282;DHT22;27486;48.77806476;9.16920056;2022-10-15T04:32:05;17.30;99.90
2282;DHT22;27486;48.77806476;9.16920056;2022-10-15T04:34:49;17.30;99.90
2282;DHT22;27486;48.77806476;9.16920056;2022-10-15T04:37:33;17.30;99.90
2282;DHT22;27486;48.77806476;9.16920056;2022-10-15T04:40:18;17.40;99.90
2282;DHT22;27486;48.77806476;9.16920056;2022-10-15T04:43:02;17.40;99.90
2282;DHT22;27486;48.77806476;9.16920056;2022-10-15T04:45:47;17.40;99.90
2282;DHT22;27486;48.77806476;9.16920056;2022-10-15T04:48:32;17.50;99.90
2282;DHT22;27486;48.77806476;9.16920056;2022-10-15T04:51:20;17.40;99.90
2282;DHT22;27486;48.77806476;9.16920056;2022-10-15T04:54:04;17.50;99.90
2282;DHT22;27486;48.77806476;9.16920056;2022-10-15T04:56:48;17.60;99.90
2282;DHT22;27486;48.77806476;9.16920056;2022-10-15T04:59:32;17.60;99.90
2282;DHT22;27486;48.77806476;9.16920056;2022-10-15T05:02:17;17.60;99.90
2282;DHT22;27486;48.77806476;9.16920056;2022-10-15T05:05:01;17.60;99.90
2282;DHT22;27486;48.77806476;9.16920056;2022-10-15T05:07:45;17.60;99.90
2282;DHT22;27486;48.77806476;9.16920056;2022-10-15T05:10:29;17.50;99.90
2282;DHT22;27486;48.77806476;9.16920056;2022-10-15T05:13:14;17.50;99.90
2282;DHT22;27486;48.77806476;9.16920056;2022-10-15T05:18:58;17.50;99.90
2282;DHT22;27486;48.77806476;9.16920056;2022-10-15T05:21:42;17.50;99.90
2282;DHT22;27486;48.77806476;9.16920056;2022-10-15T05:24:26;17.50;99.90
2282;DHT22;27486;48.77806476;9.16920056;2022-10-15T05:27:10;17.50;99.90
2282;DHT22;27486;48.77806476;9.16920056;2022-10-15T05:29:54;17.50;99.90
2282;DHT22;27486;48.77806476;9.16920056;2022-10-15T05:32:38;17.50;99.90
2282;DHT22;27486;48.77806476;9.16920056;2022-10-15T05:35:22;17.50;99.90
2282;DHT22;27486;48.77806476;9.16920056;2022-10-15T05:38:06;17.50;99.90
2282;DHT22;27486;48.77806476;9.16920056;2022-10-15T05:40:50;17.50;99.90
2282;DHT22;27486;48.77806476;9.16920056;2022-10-15T05:43:34;17.50;99.90
2282;DHT22;27486;48.77806476;9.16920056;2022-10-15T05:46:18;17.60;99.90
2282;DHT22;27486;48.77806476;9.16920056;2022-10-15T05:49:03;17.60;99.90
2282;DHT22;27486;48.77806476;9.16920056;2022-10-15T05:51:47;17.60;99.90
2282;DHT22;27486;48.77806476;9.16920056;2022-10-15T05:54:31;17.60;99.90
2282;DHT22;27486;48.77806476;9.16920056;2022-10-15T05:57:15;17.60;99.90
2282;DHT22;27486;48.77806476;9.16920056;2022-10-15T05:59:59;17.60;99.90
2282;DHT22;27486;48.77806476;9.16920056;2022-10-15T06:02:42;17.60;99.90
2282;DHT22;27486;48.77806476;9.16920056;2022-10-15T06:05:27;17.60;99.90
2282;DHT22;27486;48.77806476;9.16920056;2022-10-15T06:08:11;17.60;99.90
2282;DHT22;27486;48.77806476;9.16920056;2022-10-15T06:11:00;17.50;99.90
2282;DHT22;27486;48.77806476;9.16920056;2022-10-15T06:13:45;17.50;99.90
2282;DHT22;27486;48.77806476;9.16920056;2022-10-15T06:16:30;17.50;99.90
2282;DHT22;27486;48.77806476;9.16920056;2022-10-15T06:19:13;17.50;99.90
2282;DHT22;27486;48.77806476;9.16920056;2022-10-15T06:21:57;17.50;99.90
2282;DHT22;27486;48.77806476;9.16920056;2022-10-15T06:24:41;17.50;99.90
2282;DHT22;27486;48.77806476;9.16920056;2022-10-15T06:27:26;17.50;99.90
2282;DHT22;27486;48.77806476;9.16920056;2022-10-15T06:30:10;17.40;99.90
2282;DHT22;27486;48.77806476;9.16920056;2022-10-15T06:32:54;17.40;99.90
2282;DHT22;27486;48.77806476;9.16920056;2022-10-15T06:35:38;17.40;99.90
2282;DHT22;27486;48.77806476;9.16920056;2022-10-15T06:38:23;17.50;99.90
2282;DHT22;27486;48.77806476;9.16920056;2022-10-15T06:41:07;17.60;99.90
2282;DHT22;27486;48.77806476;9.16920056;2022-10-15T06:43:51;17.60;99.90
2282;DHT22;27486;48.77806476;9.16920056;2022-10-15T06:46:37;17.70;99.90
2282;DHT22;27486;48.77806476;9.16920056;2022-10-15T06:49:21;17.60;99.90
2282;DHT22;27486;48.77806476;9.16920056;2022-10-15T06:52:05;17.70;99.90
2282;DHT22;27486;48.77806476;9.16920056;2022-10-15T06:54:49;17.70;99.90
2282;DHT22;27486;48.77806476;9.16920056;2022-10-15T06:57:33;17.80;99.90
2282;DHT22;27486;48.77806476;9.16920056;2022-10-15T07:00:17;17.90;99.90
2282;DHT22;27486;48.77806476;9.16920056;2022-10-15T07:03:05;17.90;99.90
2282;DHT22;27486;48.77806476;9.16920056;2022-10-15T07:05:50;17.90;99.90
2282;DHT22;27486;48.77806476;9.16920056;2022-10-15T07:08:34;18.00;99.90
2282;DHT22;27486;48.77806476;9.16920056;2022-10-15T07:11:19;18.10;99.90
2282;DHT22;27486;48.77806476;9.16920056;2022-10-15T07:14:03;18.10;99.90
2282;DHT22;27486;48.77806476;9.16920056;2022-10-15T07:16:47;18.10;99.90
2282;DHT22;27486;48.77806476;9.16920056;2022-10-15T07:19:31;18.10;99.90
2282;DHT22;27486;48.77806476;9.16920056;2022-10-15T07:22:14;18.20;99.90
2282;DHT22;27486;48.77806476;9.16920056;2022-10-15T07:24:58;18.20;99.90
2282;DHT22;27486;48.77806476;9.16920056;2022-10-15T07:27:42;18.20;99.90
2282;DHT22;27486;48.77806476;9.16920056;2022-10-15T07:30:27;18.20;99.90
2282;DHT22;27486;48.77806476;9.16920056;2022-10-15T07:33:11;18.30;99.90
2282;DHT22;27486;48.77806476;9.16920056;2022-10-15T07:35:55;18.50;99.90
2282;DHT22;27486;48.77806476;9.16920056;2022-10-15T07:38:39;18.80;99.90
2282;DHT22;27486;48.77806476;9.16920056;2022-10-15T07:41:24;19.00;99.90
2282;DHT22;27486;48.77806476;9.16920056;2022-10-15T07:44:08;19.30;99.90
2282;DHT22;27486;48.77806476;9.16920056;2022-10-15T07:46:52;19.50;99.90
2282;DHT22;27486;48.77806476;9.16920056;2022-10-15T07:49:36;19.60;99.90
2282;DHT22;27486;48.77806476;9.16920056;2022-10-15T07:52:20;19.80;99.90
2282;DHT22;27486;48.77806476;9.16920056;2022-10-15T07:55:04;19.80;99.90
2282;DHT22;27486;48.77806476;9.16920056;2022-10-15T07:57:49;19.90;99.90
2282;DHT22;27486;48.77806476;9.16920056;2022-10-15T08:00:33;20.00;99.90
2282;DHT22;27486;48.77806476;9.16920056;2022-10-15T08:03:17;20.00;99.90
2282;DHT22;27486;48.77806476;9.16920056;2022-10-15T08:06:03;20.10;99.90
2282;DHT22;27486;48.77806476;9.16920056;2022-10-15T08:08:47;20.00;99.90
2282;DHT22;27486;48.77806476;9.16920056;2022-10-15T08:11:31;19.90;99.90
2282;DHT22;27486;48.77806476;9.16920056;2022-10-15T08:14:15;19.80;99.90
2282;DHT22;27486;48.77806476;9.16920056;2022-10-15T08:17:03;19.70;99.90
2282;DHT22;27486;48.77806476;9.16920056;2022-10-15T08:19:47;19.70;99.90
2282;DHT22;27486;48.77806476;9.16920056;2022-10-15T08:22:32;19.70;99.90
2282;DHT22;27486;48.77806476;9.16920056;2022-10-15T08:25:16;19.80;99.90
2282;DHT22;27486;48.77806476;9.16920056;2022-10-15T08:28:00;19.90;99.90
2282;DHT22;27486;48.77806476;9.16920056;2022-10-15T08:30:44;20.20;99.90
2282;DHT22;27486;48.77806476;9.16920056;2022-10-15T08:33:28;20.40;99.90
2282;DHT22;27486;48.77806476;9.16920056;2022-10-15T08:36:12;20.70;99.90
2282;DHT22;27486;48.77806476;9.16920056;2022-10-15T08:38:57;21.00;99.90
2282;DHT22;27486;48.77806476;9.16920056;2022-10-15T08:41:45;21.30;99.90
2282;DHT22;27486;48.77806476;9.16920056;2022-10-15T08:44:42;21.50;99.90
2282;DHT22;27486;48.77806476;9.16920056;2022-10-15T08:47:33;21.60;99.90
2282;DHT22;27486;48.77806476;9.16920056;2022-10-15T08:50:33;21.80;99.90
2282;DHT22;27486;48.77806476;9.16920056;2022-10-15T08:53:21;21.90;99.90
2282;DHT22;27486;48.77806476;9.16920056;2022-10-15T08:56:18;21.90;99.20
2282;DHT22;27486;48.77806476;9.16920056;2022-10-15T09:02:18;21.80;99.30
2282;DHT22;27486;48.77806476;9.16920056;2022-10-15T09:05:41;21.80;99.10
2282;DHT22;27486;48.77806476;9.16920056;2022-10-15T09:08:57;21.80;98.90
2282;DHT22;27486;48.77806476;9.16920056;2022-10-15T09:12:27;21.80;99.20
2282;DHT22;27486;48.77806476;9.16920056;2022-10-15T09:15:13;21.80;99.00
2282;DHT22;27486;48.77806476;9.16920056;2022-10-15T09:17:58;21.80;99.00
2282;DHT22;27486;48.77806476;9.16920056;2022-10-15T09:20:42;21.70;98.90
2282;DHT22;27486;48.77806476;9.16920056;2022-10-15T09:23:28;21.60;99.10
2282;DHT22;27486;48.77806476;9.16920056;2022-10-15T09:29:43;21.60;99.30
2282;DHT22;27486;48.77806476;9.16920056;2022-10-15T09:32:35;21.50;99.30
2282;DHT22;27486;48.77806476;9.16920056;2022-10-15T09:35:31;21.50;99.10
2282;DHT22;27486;48.77806476;9.16920056;2022-10-15T09:44:36;21.40;99.50
2282;DHT22;27486;48.77806476;9.16920056;2022-10-15T09:47:30;21.30;99.50
2282;DHT22;27486;48.77806476;9.16920056;2022-10-15T09:50:15;21.40;99.70
2282;DHT22;27486;48.77806476;9.16920056;2022-10-15T09:53:06;21.40;99.30
2282;DHT22;27486;48.77806476;9.16920056;2022-10-15T09:56:08;21.60;99.20
2282;DHT22;27486;48.77806476;9.16920056;2022-10-15T09:58:57;21.90;98.60
2282;DHT22;27486;48.77806476;9.16920056;2022-10-15T10:01:59;21.90;98.50
2282;DHT22;27486;48.77806476;9.16920056;2022-10-15T10:04:43;22.00;98.50
2282;DHT22;27486;48.77806476;9.16920056;2022-10-15T10:07:36;22.40;98.10
2282;DHT22;27486;48.77806476;9.16920056;2022-10-15T10:10:27;22.70;97.70
2282;DHT22;27486;48.77806476;9.16920056;2022-10-15T10:13:27;22.90;96.70
2282;DHT22;27486;48.77806476;9.16920056;2022-10-15T10:16:14;22.90;95.90
2282;DHT22;27486;48.77806476;9.16920056;2022-10-15T10:19:11;22.80;95.10
2282;DHT22;27486;48.77806476;9.16920056;2022-10-15T10:22:10;22.80;95.90
2282;DHT22;27486;48.77806476;9.16920056;2022-10-15T10:24:56;23.20;95.10
2282;DHT22;27486;48.77806476;9.16920056;2022-10-15T10:27:44;23.30;94.30
2282;DHT22;27486;48.77806476;9.16920056;2022-10-15T10:30:35;23.30;94.40
2282;DHT22;27486;48.77806476;9.16920056;2022-10-15T10:33:26;23.40;94.30
2282;DHT22;27486;48.77806476;9.16920056;2022-10-15T10:36:26;23.10;93.30
2282;DHT22;27486;48.77806476;9.16920056;2022-10-15T10:42:04;22.00;94.00
2282;DHT22;27486;48.77806476;9.16920056;2022-10-15T10:44:48;21.70;94.10
2282;DHT22;27486;48.77806476;9.16920056;2022-10-15T10:47:35;21.80;94.70
2282;DHT22;27486;48.77806476;9.16920056;2022-10-15T10:50:27;21.90;94.80
2282;DHT22;27486;48.77806476;9.16920056;2022-10-15T10:53:23;21.80;95.00
2282;DHT22;27486;48.77806476;9.16920056;2022-10-15T10:56:08;21.80;94.40
2282;DHT22;27486;48.77806476;9.16920056;2022-10-15T10:59:03;21.90;93.70
2282;DHT22;27486;48.77806476;9.16920056;2022-10-15T11:01:53;22.00;93.80
2282;DHT22;27486;48.77806476;9.16920056;2022-10-15T11:04:39;21.90;93.80
2282;DHT22;27486;48.77806476;9.16920056;2022-10-15T11:07:35;22.10;93.40
2282;DHT22;27486;48.77806476;9.16920056;2022-10-15T11:10:27;22.00;93.30
2282;DHT22;27486;48.77806476;9.16920056;2022-10-15T11:13:45;22.20;93.50
2282;DHT22;27486;48.77806476;9.16920056;2022-10-15T11:22:45;23.00;91.70
2282;DHT22;27486;48.77806476;9.16920056;2022-10-15T11:25:42;23.10;90.60
2282;DHT22;27486;48.77806476;9.16920056;2022-10-15T11:28:51;23.20;90.20
2282;DHT22;27486;48.77806476;9.16920056;2022-10-15T11:34:48;23.50;89.40
2282;DHT22;27486;48.77806476;9.16920056;2022-10-15T11:37:48;24.00;86.90
2282;DHT22;27486;48.77806476;9.16920056;2022-10-15T11:40:57;24.40;84.50
2282;DHT22;27486;48.77806476;9.16920056;2022-10-15T11:47:20;24.70;81.00
2282;DHT22;27486;48.77806476;9.16920056;2022-10-15T11:50:26;25.10;79.80
2282;DHT22;27486;48.77806476;9.16920056;2022-10-15T11:53:36;24.80;77.60
2282;DHT22;27486;48.77806476;9.16920056;2022-10-15T11:56:28;24.60;77.40
2282;DHT22;27486;48.77806476;9.16920056;2022-10-15T11:59:42;24.60;76.10
2282;DHT22;27486;48.77806476;9.16920056;2022-10-15T12:02:35;24.50;75.90
2282;DHT22;27486;48.77806476;9.16920056;2022-10-15T12:05:40;24.30;75.10
2282;DHT22;27486;48.77806476;9.16920056;2022-10-15T12:08:30;24.50;76.30
2282;DHT22;27486;48.77806476;9.16920056;2022-10-15T12:11:40;25.00;74.50
2282;DHT22;27486;48.77806476;9.16920056;2022-10-15T12:17:50;25.60;71.70
2282;DHT22;27486;48.77806476;9.16920056;2022-10-15T12:20:35;25.60;69.70
2282;DHT22;27486;48.77806476;9.16920056;2022-10-15T12:26:28;25.80;67.90
2282;DHT22;27486;48.77806476;9.16920056;2022-10-15T12:29:25;25.70;67.00
2282;DHT22;27486;48.77806476;9.16920056;2022-10-15T12:32:25;25.60;66.80
2282;DHT22;27486;48.77806476;9.16920056;2022-10-15T12:38:09;24.90;67.90
2282;DHT22;27486;48.77806476;9.16920056;2022-10-15T12:40:56;24.40;69.80
2282;DHT22;27486;48.77806476;9.16920056;2022-10-15T12:44:02;24.50;70.40
2282;DHT22;27486;48.77806476;9.16920056;2022-10-15T12:46:47;24.60;70.00
2282;DHT22;27486;48.77806476;9.16920056;2022-10-15T12:49:45;24.60;69.80
2282;DHT22;27486;48.77806476;9.16920056;2022-10-15T12:55:38;24.30;70.80
2282;DHT22;27486;48.77806476;9.16920056;2022-10-15T12:58:36;23.70;71.20
2282;DHT22;27486;48.77806476;9.16920056;2022-10-15T13:04:05;23.30;75.00
2282;DHT22;27486;48.77806476;9.16920056;2022-10-15T13:06:50;23.10;75.20
2282;DHT22;27486;48.77806476;9.16920056;2022-10-15T13:09:34;23.00;76.40
2282;DHT22;27486;48.77806476;9.16920056;2022-10-15T13:12:24;23.00;77.00
2282;DHT22;27486;48.77806476;9.16920056;2022-10-15T13:15:14;22.80;78.50
2282;DHT22;27486;48.77806476;9.16920056;2022-10-15T13:18:05;22.60;78.90
2282;DHT22;27486;48.77806476;9.16920056;2022-10-15T13:20:51;22.60;80.70
2282;DHT22;27486;48.77806476;9.16920056;2022-10-15T13:23:50;22.30;84.00
2282;DHT22;27486;48.77806476;9.16920056;2022-10-15T13:26:34;21.60;88.30
2282;DHT22;27486;48.77806476;9.16920056;2022-10-15T13:29:24;21.30;92.50
2282;DHT22;27486;48.77806476;9.16920056;2022-10-15T13:32:12;21.20;93.20
2282;DHT22;27486;48.77806476;9.16920056;2022-10-15T13:34:58;20.80;95.30
2282;DHT22;27486;48.77806476;9.16920056;2022-10-15T13:37:43;20.60;97.80
2282;DHT22;27486;48.77806476;9.16920056;2022-10-15T13:40:30;20.40;98.00
2282;DHT22;27486;48.77806476;9.16920056;2022-10-15T13:43:18;20.20;98.90
2282;DHT22;27486;48.77806476;9.16920056;2022-10-15T13:46:02;20.10;99.60
2282;DHT22;27486;48.77806476;9.16920056;2022-10-15T13:48:46;20.00;99.80
2282;DHT22;27486;48.77806476;9.16920056;2022-10-15T13:51:38;20.00;99.90
2282;DHT22;27486;48.77806476;9.16920056;2022-10-15T13:54:28;20.10;99.90
2282;DHT22;27486;48.77806476;9.16920056;2022-10-15T13:57:15;20.20;99.80
2282;DHT22;27486;48.77806476;9.16920056;2022-10-15T14:00:02;20.20;99.90
2282;DHT22;27486;48.77806476;9.16920056;2022-10-15T14:03:11;20.30;99.80
2282;DHT22;27486;48.77806476;9.16920056;2022-10-15T14:06:21;20.20;99.70
2282;DHT22;27486;48.77806476;9.16920056;2022-10-15T14:09:20;20.10;99.90
2282;DHT22;27486;48.77806476;9.16920056;2022-10-15T14:12:10;19.90;99.90
2282;DHT22;27486;48.77806476;9.16920056;2022-10-15T14:14:54;19.70;99.90
2282;DHT22;27486;48.77806476;9.16920056;2022-10-15T14:17:38;19.50;99.90
2282;DHT22;27486;48.77806476;9.16920056;2022-10-15T14:20:23;19.40;99.90
2282;DHT22;27486;48.77806476;9.16920056;2022-10-15T14:23:19;19.30;99.90
2282;DHT22;27486;48.77806476;9.16920056;2022-10-15T14:26:04;19.20;99.90
2282;DHT22;27486;48.77806476;9.16920056;2022-10-15T14:28:49;19.20;99.90
2282;DHT22;27486;48.77806476;9.16920056;2022-10-15T14:40:20;19.30;99.90
2282;DHT22;27486;48.77806476;9.16920056;2022-10-15T14:43:12;19.40;99.90
2282;DHT22;27486;48.77806476;9.16920056;2022-10-15T14:45:58;19.60;99.90
2282;DHT22;27486;48.77806476;9.16920056;2022-10-15T14:48:43;19.90;99.90
2282;DHT22;27486;48.77806476;9.16920056;2022-10-15T14:51:28;20.10;99.90
2282;DHT22;27486;48.77806476;9.16920056;2022-10-15T14:54:19;20.30;99.80
2282;DHT22;27486;48.77806476;9.16920056;2022-10-15T14:57:08;20.40;99.30
2282;DHT22;27486;48.77806476;9.16920056;2022-10-15T14:59:58;20.60;99.00
2282;DHT22;27486;48.77806476;9.16920056;2022-10-15T15:02:42;20.70;98.50
2282;DHT22;27486;48.77806476;9.16920056;2022-10-15T15:05:27;20.80;97.90
2282;DHT22;27486;48.77806476;9.16920056;2022-10-15T15:08:12;20.90;97.80
2282;DHT22;27486;48.77806476;9.16920056;2022-10-15T15:10:59;21.10;97.40
2282;DHT22;27486;48.77806476;9.16920056;2022-10-15T15:13:45;21.30;96.80
2282;DHT22;27486;48.77806476;9.16920056;2022-10-15T15:16:29;21.60;96.30
2282;DHT22;27486;48.77806476;9.16920056;2022-10-15T15:19:13;21.90;95.80
2282;DHT22;27486;48.77806476;9.16920056;2022-10-15T15:21:57;22.30;94.70
2282;DHT22;27486;48.77806476;9.16920056;2022-10-15T15:24:41;22.50;93.90
2282;DHT22;27486;48.77806476;9.16920056;2022-10-15T15:27:27;22.30;92.90
2282;DHT22;27486;48.77806476;9.16920056;2022-10-15T15:30:15;22.10;92.90
2282;DHT22;27486;48.77806476;9.16920056;2022-10-15T15:33:00;22.10;92.50
2282;DHT22;27486;48.77806476;9.16920056;2022-10-15T15:35:48;22.40;92.70
2282;DHT22;27486;48.77806476;9.16920056;2022-10-15T15:38:35;22.70;91.80
2282;DHT22;27486;48.77806476;9.16920056;2022-10-15T15:41:21;23.10;91.30
2282;DHT22;27486;48.77806476;9.16920056;2022-10-15T15:44:05;23.70;90.60
2282;DHT22;27486;48.77806476;9.16920056;2022-10-15T15:46:50;24.50;88.80
2282;DHT22;27486;48.77806476;9.16920056;2022-10-15T15:49:39;24.70;85.20
2282;DHT22;27486;48.77806476;9.16920056;2022-10-15T15:52:23;24.50;83.70
2282;DHT22;27486;48.77806476;9.16920056;2022-10-15T15:55:08;24.30;84.40
2282;DHT22;27486;48.77806476;9.16920056;2022-10-15T15:57:53;24.70;83.40
2282;DHT22;27486;48.77806476;9.16920056;2022-10-15T16:00:37;25.30;80.90
2282;DHT22;27486;48.77806476;9.16920056;2022-10-15T16:03:21;25.20;78.70
2282;DHT22;27486;48.77806476;9.16920056;2022-10-15T16:06:05;24.90;78.40
2282;DHT22;27486;48.77806476;9.16920056;2022-10-15T16:08:50;24.30;79.70
2282;DHT22;27486;48.77806476;9.16920056;2022-10-15T16:11:36;23.80;80.80
2282;DHT22;27486;48.77806476;9.16920056;2022-10-15T16:14:21;23.30;82.50
2282;DHT22;27486;48.77806476;9.16920056;2022-10-15T16:17:05;22.70;83.90
2282;DHT22;27486;48.77806476;9.16920056;2022-10-15T16:19:49;21.80;86.40
2282;DHT22;27486;48.77806476;9.16920056;2022-10-15T16:22:33;21.50;88.50
2282;DHT22;27486;48.77806476;9.16920056;2022-10-15T16:25:18;21.30;89.00
2282;DHT22;27486;48.77806476;9.16920056;2022-10-15T16:28:03;20.90;90.40
2282;DHT22;27486;48.77806476;9.16920056;2022-10-15T16:30:47;20.50;91.00
2282;DHT22;27486;48.77806476;9.16920056;2022-10-15T16:33:31;20.40;91.80
2282;DHT22;27486;48.77806476;9.16920056;2022-10-15T16:36:16;20.20;92.20
2282;DHT22;27486;48.77806476;9.16920056;2022-10-15T16:39:00;20.00;92.70
2282;DHT22;27486;48.77806476;9.16920056;2022-10-15T16:41:44;19.90;93.10